Bridgton, Maine
Current Conditions -  °F | °C
As of 8:54 AM on Tuesday 27 Jan 2015 (Local Time) from KIZG Reporting Station
Moderate Snow Moderate Snow  
Wind Chill:   Ceiling: 500
Heat Index: 14°   Visibility: 0.5mi
Dew Point:   Wind: 12mph
Humidity: 80%   Direction: 30°NNE
Pressure: 29.77"   Gusts: 26mph
Location:  44.06°N, 70.7°W
Report Text: KIZG 271354Z AUTO 03010G23KT 1/2SM SN VV005 M10/M13 A2977 RMK AO2 SLP091 P0005 T11001128
Loading
Personal Weather Stations






























Interactive Weather Map New forecast layout! Learn more

10-Day Weather Forecast

Advertisements
Track Severe Weather on mobile